Oakfield, GA (31772)

11:31 PM EST on December 21, 2014 (GMT -0500)
Lyle Farms | Change Station
CLOSE
Current Station
Personal Weather Station
Location: Cobb, GA
Elevation: 285 ft
Nearby Weather Stations

Elev 285 ft 31.98 °N, 83.96 °W | Updated 14 minutes ago

Overcast
Overcast
48.0 °F
Feels Like 48 °F
N
3.0
Wind Variable Wind from South
Gusts 3.0 mph

Today
High -- | Low -- °F
--% Chance of Precip.
Yesterday
High -- | Low -- °F
Precip. -- in
7:31 AM 5:36 PM
New Moon, 0% visible
Pressure 30.08 in
Visibility 3.0 miles
Clouds Overcast 400 ft
Windchill 48 °F
Dew Point 47 °F
Humidity 96%
Rainfall 0.05 in
Snow Depth Not available.
UV 0 out of 12
Pollen .30 out of 12
Air Quality Not available.
Flu Activity Not available.
METAR KCKF 220415Z AUTO 10004KT 3SM -DZ OVC004 09/09 A3008 RMK AO2 T00940086

More Conditions Fewer Conditions

Pressure 30.08 in
Visibility 3.0 miles
Clouds Overcast 400 ft
Windchill 48 °F
Dew Point 47 °F
Humidity 96%
Rainfall 0.05 in
Snow Depth Not available.
UV 0 out of 12
Pollen .30 out of 12
Air Quality Not available.
Flu Activity Not available.
METAR KCKF 220415Z AUTO 10004KT 3SM -DZ OVC004 09/09 A3008 RMK AO2 T00940086

More Conditions Fewer Conditions

10-Day Weather Forecast

Almanac

Astronomy

Dec. 21, 2014 Rise Set
Actual Time
Civil Twilight
Nautical Twilight
Astronomical Twilight
Moon
Length of Visible Light
Length of Day
Tomorrow will be .
, % of the Moon is Illuminated

Today's Extremes

State Highs State Lows

Community

WunderPhotos

Upload Photos

1,779,540 photos uploaded!

WunderBlogs® & News

Nearby

Air Quality

  Air Quality AQ Index Pollutant
Not available.

Snow Depth

Station Depth Elevation

Earthquake Activity

City Distance Mag. Time & Date
Minimum magnitude displayed is 2.5.

Coastal Water Temperatures

Place Temperature

Nearby Weather Stations